Time;durP1;ratioP1;P1;durP2;ratioP2;P2;SDS_P1;SDS_P2;PMS_P1;PMS_P2;Temp;Humidity;BMP_temperature;BMP_pressure;BME280_temperature;BME280_humidity;BME280_pressure;Samples;Min_cycle;Max_cycle;Signal;HPM_P1;HPM_P2
2021/11/24 00:02:22;;;;;;;1.42;1.10;;;23.40;49.30;;;;;;4928185;29;20270;-49
2021/11/24 00:04:52;;;;;;;2.97;1.23;;;23.40;49.30;;;;;;4929079;29;20226;-50
2021/11/24 00:07:23;;;;;;;3.33;1.58;;;23.40;49.20;;;;;;4928153;29;20200;-50
2021/11/24 00:09:54;;;;;;;2.97;1.15;;;23.40;49.10;;;;;;4928478;29;20203;-51
2021/11/24 00:12:26;;;;;;;1.92;1.20;;;23.40;49.00;;;;;;4928759;29;20239;-51
2021/11/24 00:14:57;;;;;;;2.05;1.27;;;23.40;48.90;;;;;;4927968;29;20227;-49
2021/11/24 00:17:27;;;;;;;2.72;1.20;;;23.40;48.90;;;;;;4929498;29;20261;-54
2021/11/24 00:19:58;;;;;;;1.42;1.10;;;23.50;48.90;;;;;;4927126;29;20211;-50
2021/11/24 00:22:29;;;;;;;1.33;1.15;;;23.50;48.90;;;;;;4929880;29;20195;-51
2021/11/24 00:25:00;;;;;;;1.55;1.13;;;23.50;48.90;;;;;;4928109;29;20508;-50
2021/11/24 00:27:32;;;;;;;2.85;1.15;;;23.50;48.80;;;;;;4928593;29;20259;-49
2021/11/24 00:30:03;;;;;;;1.77;1.20;;;23.50;48.70;;;;;;4928131;29;20735;-50
2021/11/24 00:32:34;;;;;;;1.10;1.00;;;23.50;48.70;;;;;;4926804;29;20232;-53
2021/11/24 00:35:05;;;;;;;1.98;1.10;;;23.50;48.50;;;;;;4929094;29;20231;-53
2021/11/24 00:37:36;;;;;;;2.65;1.02;;;23.60;48.50;;;;;;4926318;29;20267;-51
2021/11/24 00:40:08;;;;;;;2.85;1.10;;;23.60;48.30;;;;;;4929437;29;20641;-49
2021/11/24 00:42:40;;;;;;;3.45;1.05;;;23.60;48.20;;;;;;4928082;29;20254;-51
2021/11/24 00:45:11;;;;;;;1.10;1.00;;;23.70;48.30;;;;;;4931861;29;20314;-50
2021/11/24 00:47:42;;;;;;;1.70;1.00;;;23.70;48.20;;;;;;4932096;29;20199;-53
2021/11/24 00:50:13;;;;;;;2.08;1.10;;;23.70;48.20;;;;;;4932234;29;20691;-48
2021/11/24 00:52:43;;;;;;;1.27;1.02;;;23.70;48.10;;;;;;4933196;29;20714;-49
2021/11/24 00:55:14;;;;;;;2.92;1.35;;;23.70;48.10;;;;;;4926101;29;20695;-49
2021/11/24 00:57:46;;;;;;;1.95;1.10;;;23.70;48.00;;;;;;4933203;29;20247;-50
2021/11/24 01:00:18;;;;;;;1.10;1.00;;;23.70;47.90;;;;;;4930846;29;20262;-51
2021/11/24 01:02:48;;;;;;;1.92;1.20;;;23.70;47.90;;;;;;4930479;29;20212;-50
2021/11/24 01:05:19;;;;;;;1.80;1.10;;;23.70;47.80;;;;;;4931142;29;20313;-49
2021/11/24 01:07:50;;;;;;;2.25;1.33;;;23.70;47.70;;;;;;4931655;29;20215;-53
2021/11/24 01:10:20;;;;;;;1.35;0.95;;;23.70;47.70;;;;;;4931276;29;20203;-53
2021/11/24 01:12:53;;;;;;;2.60;1.00;;;23.70;47.60;;;;;;4930707;29;20224;-50
2021/11/24 01:15:24;;;;;;;1.45;1.10;;;23.80;47.60;;;;;;4932484;29;20278;-52
2021/11/24 01:17:54;;;;;;;1.27;0.88;;;23.80;47.60;;;;;;4930859;29;20196;-51
2021/11/24 01:20:25;;;;;;;2.10;1.05;;;23.80;47.50;;;;;;4932099;29;20199;-51
2021/11/24 01:22:56;;;;;;;4.25;1.30;;;23.80;47.50;;;;;;4931725;29;20239;-51
2021/11/24 01:25:26;;;;;;;1.38;1.05;;;23.80;47.50;;;;;;4926901;29;20620;-51
2021/11/24 01:27:59;;;;;;;2.72;1.17;;;23.80;47.40;;;;;;4931410;29;20195;-50
2021/11/24 01:30:30;;;;;;;3.22;1.10;;;23.80;47.40;;;;;;4929627;29;20208;-51
2021/11/24 01:33:00;;;;;;;1.05;0.90;;;23.80;47.40;;;;;;4931896;29;20227;-52
2021/11/24 01:35:31;;;;;;;2.45;1.10;;;23.90;47.40;;;;;;4929496;29;20299;-49
2021/11/24 01:38:01;;;;;;;1.73;0.93;;;23.90;47.30;;;;;;4931220;29;20216;-52
2021/11/24 01:40:32;;;;;;;1.90;1.10;;;23.90;47.30;;;;;;4929638;29;20665;-53
2021/11/24 01:43:06;;;;;;;2.03;1.00;;;23.90;47.20;;;;;;4930084;29;20563;-49
2021/11/24 01:45:36;;;;;;;4.03;1.30;;;23.90;47.20;;;;;;4930344;29;20306;-50
2021/11/24 01:48:08;;;;;;;1.67;1.10;;;23.90;47.20;;;;;;4928208;29;20658;-54
2021/11/24 01:50:39;;;;;;;2.38;0.90;;;24.00;47.30;;;;;;4931960;29;20203;-52
2021/11/24 01:53:09;;;;;;;2.05;1.00;;;24.00;47.20;;;;;;4928426;29;20282;-50
2021/11/24 01:55:40;;;;;;;1.20;0.98;;;24.00;47.20;;;;;;4930525;29;20230;-48
2021/11/24 01:58:13;;;;;;;2.10;1.10;;;24.00;47.20;;;;;;4930730;29;20199;-47
2021/11/24 02:00:44;;;;;;;1.73;1.05;;;24.00;47.10;;;;;;4941699;23;20436;-45
2021/11/24 02:03:15;;;;;;;2.28;1.20;;;24.00;47.10;;;;;;4949137;28;20293;-46
2021/11/24 02:05:45;;;;;;;2.50;1.08;;;24.00;47.10;;;;;;4942021;29;20216;-44
2021/11/24 02:08:16;;;;;;;3.63;1.25;;;24.00;47.10;;;;;;4948310;29;20191;-45
2021/11/24 02:10:46;;;;;;;1.38;1.00;;;24.00;47.10;;;;;;4939490;28;20196;-45
2021/11/24 02:13:19;;;;;;;2.65;1.20;;;24.00;47.10;;;;;;4947769;29;20290;-46
2021/11/24 02:15:50;;;;;;;1.83;1.13;;;24.10;47.00;;;;;;4940082;29;20270;-47
2021/11/24 02:18:20;;;;;;;1.25;0.90;;;24.10;47.00;;;;;;4944714;28;20219;-44
2021/11/24 02:20:52;;;;;;;2.22;1.05;;;24.10;47.00;;;;;;4943449;29;20207;-45
2021/11/24 02:23:23;;;;;;;1.50;0.80;;;24.10;46.90;;;;;;4943389;28;20204;-47
2021/11/24 02:25:54;;;;;;;2.42;1.10;;;24.10;46.90;;;;;;4946034;29;20274;-49
2021/11/24 02:28:24;;;;;;;1.55;1.00;;;24.20;46.90;;;;;;4939009;28;20286;-44
2021/11/24 02:30:55;;;;;;;3.58;1.30;;;24.20;47.00;;;;;;4947941;29;20203;-45
2021/11/24 02:33:25;;;;;;;2.15;1.10;;;24.20;47.00;;;;;;4941610;28;20278;-46
2021/11/24 02:35:58;;;;;;;5.13;1.55;;;24.20;47.00;;;;;;4945302;28;20757;-46
2021/11/24 02:38:28;;;;;;;3.50;1.38;;;24.20;46.90;;;;;;4942907;29;20199;-45
2021/11/24 02:40:59;;;;;;;2.22;1.20;;;24.20;47.00;;;;;;4941992;29;20251;-47
2021/11/24 02:43:29;;;;;;;5.10;1.48;;;24.20;47.00;;;;;;4943566;29;20202;-47
2021/11/24 02:46:00;;;;;;;4.75;1.33;;;24.20;46.90;;;;;;4940079;28;20278;-47
2021/11/24 02:48:31;;;;;;;3.00;1.27;;;24.20;47.60;;;;;;4946195;29;20718;-45
2021/11/24 02:51:03;;;;;;;4.07;1.33;;;24.30;47.10;;;;;;4937822;29;20199;-44
2021/11/24 02:53:37;;;;;;;2.45;1.40;;;24.30;47.20;;;;;;4945252;28;20266;-44
2021/11/24 02:56:08;;;;;;;3.67;1.50;;;24.30;47.10;;;;;;4942274;29;20227;-45
2021/11/24 02:58:38;;;;;;;4.07;1.13;;;24.30;47.00;;;;;;4940322;28;20208;-47
2021/11/24 03:01:09;;;;;;;3.78;1.27;;;24.30;46.90;;;;;;4944991;28;20746;-49
2021/11/24 03:03:40;;;;;;;2.75;1.15;;;24.30;46.90;;;;;;4939709;28;20195;-47
2021/11/24 03:06:12;;;;;;;3.40;1.13;;;24.30;46.90;;;;;;4946174;28;20289;-45
2021/11/24 03:08:43;;;;;;;2.83;1.40;;;24.40;47.40;;;;;;4939031;28;20341;-44
2021/11/24 03:11:13;;;;;;;2.72;1.17;;;24.40;46.70;;;;;;4945420;29;20206;-44
2021/11/24 03:13:44;;;;;;;3.97;1.20;;;24.40;46.70;;;;;;4941698;29;20242;-44
2021/11/24 03:16:15;;;;;;;2.72;1.17;;;24.40;46.60;;;;;;4941473;29;20231;-46
2021/11/24 03:18:45;;;;;;;6.22;1.52;;;24.40;46.50;;;;;;4945505;29;20246;-46
2021/11/24 03:21:18;;;;;;;2.85;1.27;;;24.40;46.40;;;;;;4939894;28;20369;-48
2021/11/24 03:23:48;;;;;;;3.20;1.38;;;24.50;46.30;;;;;;4947749;29;20258;-46
2021/11/24 03:26:19;;;;;;;3.33;1.38;;;24.40;46.20;;;;;;4935532;29;20224;-45
2021/11/24 03:28:49;;;;;;;3.15;1.35;;;24.50;46.20;;;;;;4946694;28;21636;-44
2021/11/24 03:31:20;;;;;;;3.80;1.10;;;24.50;46.10;;;;;;4937488;29;20277;-44
2021/11/24 03:33:51;;;;;;;2.85;1.00;;;24.50;46.10;;;;;;4943746;28;20207;-44
2021/11/24 03:36:23;;;;;;;2.55;1.00;;;24.50;46.10;;;;;;4943732;29;20645;-48
2021/11/24 03:38:54;;;;;;;3.65;1.17;;;24.50;46.10;;;;;;4939345;28;20210;-48
2021/11/24 03:41:25;;;;;;;3.05;1.17;;;24.50;46.10;;;;;;4947594;28;20195;-44
2021/11/24 03:43:55;;;;;;;8.50;1.60;;;24.50;46.10;;;;;;4937236;28;20211;-46
2021/11/24 03:46:26;;;;;;;9.57;1.85;;;24.50;45.90;;;;;;4946869;28;20376;-45
2021/11/24 03:48:56;;;;;;;5.03;1.45;;;24.60;45.80;;;;;;4937959;29;20723;-44
2021/11/24 03:51:29;;;;;;;7.00;1.88;;;24.60;45.80;;;;;;4944475;29;20203;-45
2021/11/24 03:53:59;;;;;;;5.43;1.20;;;24.60;45.70;;;;;;4939682;29;20663;-49
2021/11/24 03:56:30;;;;;;;6.47;1.58;;;24.60;45.60;;;;;;4939858;29;20295;-46
2021/11/24 03:59:01;;;;;;;6.53;1.13;;;24.60;45.60;;;;;;4943893;29;20258;-48
2021/11/24 04:01:31;;;;;;;4.90;1.40;;;24.60;45.60;;;;;;4937292;29;20267;-46
2021/11/24 04:04:02;;;;;;;5.30;1.30;;;24.70;45.70;;;;;;4946203;29;20269;-44
2021/11/24 04:06:34;;;;;;;3.72;1.33;;;24.70;45.70;;;;;;4937371;28;20210;-46
2021/11/24 04:09:05;;;;;;;6.70;1.60;;;24.70;45.70;;;;;;4942893;29;20294;-47
2021/11/24 04:11:36;;;;;;;5.10;1.33;;;24.70;45.70;;;;;;4942125;29;20664;-45
2021/11/24 04:14:06;;;;;;;6.30;1.38;;;24.70;45.80;;;;;;4942568;28;20262;-49
2021/11/24 04:16:37;;;;;;;4.35;1.20;;;24.70;46.40;;;;;;4944242;28;20222;-46
2021/11/24 04:19:08;;;;;;;4.53;1.30;;;24.70;45.80;;;;;;4942454;28;20211;-45
2021/11/24 04:21:40;;;;;;;6.82;1.67;;;24.70;45.80;;;;;;4949856;29;20655;-45
2021/11/24 04:24:11;;;;;;;6.20;1.40;;;24.80;45.80;;;;;;4941662;29;20199;-44
2021/11/24 04:26:41;;;;;;;3.03;1.48;;;24.80;45.80;;;;;;4948606;28;20203;-44
2021/11/24 04:29:12;;;;;;;5.32;1.52;;;24.80;45.80;;;;;;4944724;29;20211;-48
2021/11/24 04:31:43;;;;;;;4.95;1.45;;;24.80;45.80;;;;;;4946026;28;20273;-44
2021/11/24 04:34:13;;;;;;;3.10;1.27;;;24.80;45.70;;;;;;4944107;29;20195;-47
2021/11/24 04:36:46;;;;;;;6.60;1.70;;;24.80;45.80;;;;;;4941153;28;20207;-45
2021/11/24 04:39:16;;;;;;;4.32;1.50;;;24.90;45.80;;;;;;4949659;29;20246;-45
2021/11/24 04:41:47;;;;;;;4.35;1.58;;;24.80;45.70;;;;;;4940129;29;20192;-47
2021/11/24 04:44:18;;;;;;;2.55;1.25;;;24.80;45.70;;;;;;4949199;28;20247;-44
2021/11/24 04:46:49;;;;;;;3.38;1.17;;;24.90;45.80;;;;;;4944084;29;20647;-45
2021/11/24 04:49:20;;;;;;;4.30;1.65;;;24.90;45.70;;;;;;4945578;29;20731;-46
2021/11/24 04:51:53;;;;;;;3.88;1.40;;;24.90;45.70;;;;;;4946012;29;20195;-44
2021/11/24 04:54:23;;;;;;;6.78;1.60;;;24.90;45.80;;;;;;4941972;28;20274;-46
2021/11/24 04:56:54;;;;;;;3.67;1.50;;;24.90;45.60;;;;;;4949713;29;20235;-46
2021/11/24 04:59:24;;;;;;;4.95;1.48;;;24.90;45.60;;;;;;4938250;29;20750;-45
2021/11/24 05:01:55;;;;;;;4.38;1.45;;;24.90;45.60;;;;;;4950514;28;20203;-46
2021/11/24 05:04:27;;;;;;;3.17;1.63;;;24.90;45.60;;;;;;4942413;29;20266;-47
2021/11/24 05:06:59;;;;;;;3.83;1.48;;;24.90;45.60;;;;;;4945862;28;20303;-46
2021/11/24 05:09:30;;;;;;;5.28;1.63;;;24.90;45.60;;;;;;4945835;29;20214;-47
2021/11/24 05:12:03;;;;;;;5.35;1.67;;;24.90;45.60;;;;;;4941380;28;20690;-44
2021/11/24 05:14:35;;;;;;;5.07;1.75;;;24.90;45.70;;;;;;4949019;29;20679;-46
2021/11/24 05:17:08;;;;;;;7.35;1.42;;;24.90;45.70;;;;;;4936701;29;20208;-46
2021/11/24 05:19:42;;;;;;;4.07;1.40;;;24.90;45.70;;;;;;4948933;28;20211;-44
2021/11/24 05:22:14;;;;;;;6.55;1.70;;;24.90;45.70;;;;;;4942399;29;20798;-47
2021/11/24 05:24:45;;;;;;;5.03;1.40;;;24.90;45.60;;;;;;4944450;28;20222;-45
2021/11/24 05:27:16;;;;;;;6.63;1.40;;;24.90;45.60;;;;;;4944043;29;20242;-49
2021/11/24 05:29:50;;;;;;;3.85;1.73;;;24.90;45.50;;;;;;4940748;28;20207;-49
2021/11/24 05:32:20;;;;;;;4.13;1.27;;;24.90;45.50;;;;;;4949918;29;20273;-45
2021/11/24 05:34:51;;;;;;;5.32;1.67;;;24.90;45.60;;;;;;4939717;28;20222;-45
2021/11/24 05:37:26;;;;;;;9.10;1.52;;;24.90;45.50;;;;;;4948834;28;20204;-45
2021/11/24 05:39:56;;;;;;;12.40;3.00;;;24.90;45.60;;;;;;4942126;29;20202;-48
2021/11/24 05:42:27;;;;;;;18.27;5.28;;;24.90;45.50;;;;;;4944282;28;20215;-45
2021/11/24 05:45:12;;;;;;;16.77;4.65;;;24.90;45.60;;;;;;4944508;29;20235;-45
2021/11/24 05:47:55;;;;;;;16.17;5.43;;;24.90;45.50;;;;;;4940731;28;20221;-46
2021/11/24 05:50:26;;;;;;;13.63;4.70;;;24.90;45.60;;;;;;4948278;29;20574;-47
2021/11/24 05:52:59;;;;;;;19.40;5.75;;;24.90;45.70;;;;;;4940584;29;20230;-48
2021/11/24 05:55:29;;;;;;;26.60;7.05;;;24.90;45.60;;;;;;4943449;28;20246;-48
2021/11/24 05:58:00;;;;;;;17.98;6.13;;;24.90;45.70;;;;;;4941818;29;20203;-50
2021/11/24 06:00:33;;;;;;;16.45;6.03;;;24.90;45.70;;;;;;4943708;28;20730;-46
2021/11/24 06:03:03;;;;;;;16.70;5.97;;;24.90;45.70;;;;;;4946806;29;20207;-49
2021/11/24 06:05:34;;;;;;;15.65;5.75;;;24.90;45.60;;;;;;4940537;28;20230;-47
2021/11/24 06:08:07;;;;;;;19.52;5.43;;;24.90;45.60;;;;;;4948597;29;20203;-48
2021/11/24 06:10:38;;;;;;;15.85;4.85;;;24.90;45.60;;;;;;4939545;28;20195;-46
2021/11/24 06:13:08;;;;;;;11.63;4.93;;;24.90;45.60;;;;;;4945963;28;20280;-48
2021/11/24 06:15:39;;;;;;;16.40;5.03;;;24.90;45.60;;;;;;4942175;29;20266;-46
2021/11/24 06:18:10;;;;;;;14.15;4.82;;;24.90;45.60;;;;;;4941014;29;20203;-46
2021/11/24 06:20:41;;;;;;;18.55;4.68;;;24.90;45.60;;;;;;4945905;29;20206;-47
2021/11/24 06:23:14;;;;;;;16.63;5.07;;;24.90;45.60;;;;;;4938309;28;20236;-45
2021/11/24 06:25:45;;;;;;;12.27;4.70;;;24.90;45.60;;;;;;4938197;29;20226;-45
2021/11/24 06:28:15;;;;;;;11.50;3.97;;;24.90;45.70;;;;;;4938536;29;20199;-48
2021/11/24 06:30:46;;;;;;;13.20;4.75;;;24.90;45.60;;;;;;4945999;28;20699;-46
2021/11/24 06:33:17;;;;;;;14.27;4.80;;;24.90;45.60;;;;;;4942981;29;20218;-47
2021/11/24 06:35:47;;;;;;;10.60;4.10;;;24.90;45.70;;;;;;4944119;29;20222;-47
2021/11/24 06:38:20;;;;;;;13.75;4.07;;;24.90;45.70;;;;;;4944137;29;20210;-50
2021/11/24 06:40:50;;;;;;;13.98;4.00;;;24.90;45.70;;;;;;4940640;28;20203;-49
2021/11/24 06:43:21;;;;;;;12.02;3.78;;;24.90;45.80;;;;;;4948233;29;20199;-48
2021/11/24 06:45:52;;;;;;;10.65;4.18;;;24.90;45.80;;;;;;4938156;29;20284;-51
2021/11/24 06:48:22;;;;;;;12.48;3.85;;;24.90;45.80;;;;;;4947730;28;20207;-45
2021/11/24 06:50:53;;;;;;;10.95;3.60;;;24.80;45.70;;;;;;4941784;29;20203;-49
2021/11/24 06:53:25;;;;;;;9.05;3.85;;;24.80;45.70;;;;;;4942625;28;20275;-45
2021/11/24 06:55:56;;;;;;;12.10;3.53;;;24.80;45.70;;;;;;4930825;29;20703;-48
2021/11/24 06:58:26;;;;;;;9.23;3.83;;;24.80;45.80;;;;;;4938692;28;20715;-47
2021/11/24 07:00:58;;;;;;;10.40;3.25;;;24.80;45.80;;;;;;4946577;29;20660;-46
2021/11/24 07:03:28;;;;;;;11.65;3.53;;;24.80;45.80;;;;;;4938936;28;20656;-49
2021/11/24 07:05:59;;;;;;;14.05;3.75;;;24.80;45.80;;;;;;4947153;28;20269;-47
2021/11/24 07:08:32;;;;;;;7.95;2.90;;;24.80;45.80;;;;;;4939441;29;20592;-48
2021/11/24 07:11:02;;;;;;;10.13;3.75;;;24.70;45.80;;;;;;4943046;28;20257;-47
2021/11/24 07:13:33;;;;;;;8.45;3.38;;;24.70;45.80;;;;;;4941989;29;20297;-47
2021/11/24 07:16:04;;;;;;;8.20;2.88;;;24.70;45.90;;;;;;4940188;28;20225;-48
2021/11/24 07:18:34;;;;;;;6.90;2.92;;;24.70;45.90;;;;;;4946240;28;20194;-48
2021/11/24 07:21:05;;;;;;;6.32;2.88;;;24.70;45.90;;;;;;4939249;28;20210;-47
2021/11/24 07:23:37;;;;;;;5.88;2.70;;;24.70;45.90;;;;;;4946080;29;20275;-47
2021/11/24 07:26:08;;;;;;;8.27;2.70;;;24.70;46.00;;;;;;4932816;29;20352;-49
2021/11/24 07:28:39;;;;;;;9.57;3.15;;;24.60;45.90;;;;;;4935597;29;20226;-50
2021/11/24 07:31:09;;;;;;;9.50;3.05;;;24.60;45.90;;;;;;4941891;29;20203;-50
2021/11/24 07:33:40;;;;;;;11.35;3.00;;;24.70;46.00;;;;;;4942909;28;20231;-47
2021/11/24 07:36:11;;;;;;;8.13;3.05;;;24.60;46.00;;;;;;4943762;29;20223;-49
2021/11/24 07:38:43;;;;;;;8.95;2.90;;;24.60;46.10;;;;;;4938152;29;20251;-49
2021/11/24 07:41:14;;;;;;;7.45;2.50;;;24.50;46.10;;;;;;4944970;29;20775;-50
2021/11/24 07:43:44;;;;;;;8.48;2.63;;;24.50;46.10;;;;;;4937868;28;20253;-47
2021/11/24 07:46:16;;;;;;;6.28;2.53;;;24.50;46.10;;;;;;4946374;28;20757;-48
2021/11/24 07:48:46;;;;;;;6.35;2.60;;;24.50;46.10;;;;;;4942009;29;20202;-49
2021/11/24 07:51:19;;;;;;;7.85;2.60;;;24.50;46.10;;;;;;4941943;28;20242;-48
2021/11/24 07:53:51;;;;;;;6.88;2.50;;;24.50;46.10;;;;;;4947585;29;20225;-50
2021/11/24 07:56:22;;;;;;;6.75;2.58;;;24.50;46.20;;;;;;4943086;28;20215;-49
2021/11/24 07:58:54;;;;;;;6.30;2.40;;;24.50;46.10;;;;;;4933662;29;20258;-47
2021/11/24 08:01:25;;;;;;;4.93;2.40;;;24.40;46.10;;;;;;4943724;29;20211;-48
2021/11/24 08:03:55;;;;;;;5.07;2.33;;;24.40;46.10;;;;;;4949031;28;20252;-50
2021/11/24 08:06:26;;;;;;;4.22;2.20;;;24.40;46.10;;;;;;4946369;29;20214;-47
2021/11/24 08:08:58;;;;;;;6.20;2.63;;;24.40;46.10;;;;;;4943969;29;20278;-48
2021/11/24 08:11:29;;;;;;;6.25;2.25;;;24.30;46.10;;;;;;4946008;29;20199;-50
2021/11/24 08:13:59;;;;;;;3.78;1.98;;;24.30;46.10;;;;;;4942731;28;20282;-47
2021/11/24 08:16:30;;;;;;;5.70;2.47;;;24.30;46.20;;;;;;4950655;29;20569;-46
2021/11/24 08:19:00;;;;;;;6.63;2.60;;;24.30;46.20;;;;;;4939538;29;20258;-52
2021/11/24 08:21:31;;;;;;;7.28;2.58;;;24.30;46.20;;;;;;4950144;28;20216;-48
2021/11/24 08:24:03;;;;;;;4.90;2.08;;;24.20;46.20;;;;;;4942482;29;20254;-50
2021/11/24 08:26:34;;;;;;;4.53;1.98;;;24.20;46.30;;;;;;4945754;28;20271;-50
2021/11/24 08:29:05;;;;;;;4.32;1.75;;;24.20;46.30;;;;;;4939919;29;20207;-50
2021/11/24 08:31:39;;;;;;;4.10;2.22;;;24.20;46.30;;;;;;4942164;29;20245;-47
2021/11/24 08:34:12;;;;;;;5.70;2.42;;;24.20;46.30;;;;;;4951281;29;20765;-49
2021/11/24 08:36:43;;;;;;;4.60;2.17;;;24.10;46.30;;;;;;4939433;29;20588;-46
2021/11/24 08:39:15;;;;;;;5.18;2.10;;;24.10;46.30;;;;;;4949027;28;20214;-46
2021/11/24 08:41:46;;;;;;;4.25;2.17;;;24.00;46.30;;;;;;4944988;29;20254;-45
2021/11/24 08:44:17;;;;;;;3.10;2.03;;;24.00;46.30;;;;;;4946991;28;20250;-45
2021/11/24 08:46:47;;;;;;;5.82;2.10;;;24.00;46.40;;;;;;4945710;28;20892;-47
2021/11/24 08:49:18;;;;;;;5.50;2.03;;;24.00;46.40;;;;;;4942795;28;20207;-47
2021/11/24 08:51:49;;;;;;;6.93;2.85;;;24.00;46.50;;;;;;4947177;29;20227;-45
2021/11/24 08:54:21;;;;;;;4.60;2.55;;;23.90;46.40;;;;;;4939511;28;20291;-45
2021/11/24 08:56:52;;;;;;;6.55;2.40;;;23.90;46.50;;;;;;4950306;28;20215;-47
2021/11/24 08:59:23;;;;;;;4.85;2.50;;;23.90;46.50;;;;;;4941149;29;20203;-45
2021/11/24 09:01:55;;;;;;;6.18;2.83;;;23.80;46.50;;;;;;4946153;28;20612;-45
2021/11/24 09:04:26;;;;;;;5.47;2.08;;;23.80;46.60;;;;;;4946290;28;20290;-45
2021/11/24 09:06:56;;;;;;;6.22;2.13;;;23.80;46.50;;;;;;4942472;28;20301;-46
2021/11/24 09:09:29;;;;;;;4.70;2.25;;;23.80;46.60;;;;;;4944819;29;20259;-45
2021/11/24 09:11:59;;;;;;;5.10;2.30;;;23.70;46.60;;;;;;4939347;28;20207;-46
2021/11/24 09:14:30;;;;;;;5.07;2.00;;;23.70;46.70;;;;;;4950012;29;20724;-45
2021/11/24 09:17:01;;;;;;;6.95;2.35;;;23.70;46.70;;;;;;4939788;29;20254;-45
2021/11/24 09:19:31;;;;;;;4.70;1.90;;;23.70;46.70;;;;;;4946782;28;20215;-45
2021/11/24 09:22:02;;;;;;;3.35;1.95;;;23.70;46.70;;;;;;4944932;28;20246;-45
2021/11/24 09:24:34;;;;;;;6.85;2.45;;;23.60;46.70;;;;;;4943273;28;20782;-45
2021/11/24 09:27:11;;;;;;;5.90;2.38;;;23.60;46.70;;;;;;4948391;29;20846;-47
2021/11/24 09:29:42;;;;;;;3.95;2.05;;;23.60;46.70;;;;;;4939902;28;20297;-46
2021/11/24 09:32:12;;;;;;;6.57;1.95;;;23.50;46.70;;;;;;4949159;29;20233;-45
2021/11/24 09:34:43;;;;;;;5.38;2.42;;;23.50;46.70;;;;;;4941482;28;20243;-45
2021/11/24 09:37:14;;;;;;;4.47;2.00;;;23.50;46.80;;;;;;4947150;28;20222;-45
2021/11/24 09:39:46;;;;;;;4.13;2.03;;;23.50;46.80;;;;;;4944464;29;20242;-45
2021/11/24 09:42:18;;;;;;;6.35;2.25;;;23.40;46.80;;;;;;4944148;28;20259;-45
2021/11/24 09:44:50;;;;;;;5.10;2.00;;;23.40;46.80;;;;;;4948384;29;20223;-45
2021/11/24 09:47:22;;;;;;;5.32;2.20;;;23.40;46.90;;;;;;4938624;28;20199;-45
2021/11/24 09:49:57;;;;;;;4.32;2.08;;;23.40;46.80;;;;;;4947725;29;20191;-45
2021/11/24 09:52:28;;;;;;;4.88;2.25;;;23.30;46.80;;;;;;4942535;29;20261;-45
2021/11/24 09:55:02;;;;;;;5.82;2.03;;;23.30;46.90;;;;;;4946123;28;20234;-45
2021/11/24 09:57:33;;;;;;;4.88;2.25;;;23.30;46.80;;;;;;4945719;29;20195;-43
2021/11/24 10:00:04;;;;;;;3.58;1.85;;;23.30;46.80;;;;;;4943207;29;20246;-43
2021/11/24 10:02:34;;;;;;;5.72;2.35;;;23.30;46.90;;;;;;4948260;29;20206;-43
2021/11/24 10:05:05;;;;;;;4.35;2.08;;;23.20;46.80;;;;;;4940420;28;20281;-43
2021/11/24 10:07:37;;;;;;;6.63;2.10;;;23.20;46.80;;;;;;4949246;29;20647;-43
2021/11/24 10:10:10;;;;;;;3.60;1.92;;;23.20;46.80;;;;;;4938169;29;20199;-42
2021/11/24 10:12:41;;;;;;;5.75;2.35;;;23.10;46.90;;;;;;4944653;29;20724;-44
2021/11/24 10:15:12;;;;;;;3.65;1.92;;;23.10;46.90;;;;;;4941220;28;20270;-46
2021/11/24 10:17:43;;;;;;;4.88;2.08;;;23.10;46.90;;;;;;4942934;28;20266;-43
2021/11/24 10:20:15;;;;;;;4.97;2.17;;;23.00;46.90;;;;;;4943211;29;20199;-43
2021/11/24 10:22:46;;;;;;;4.18;2.08;;;23.00;46.90;;;;;;4939790;28;20202;-43
2021/11/24 10:25:20;;;;;;;6.93;2.20;;;23.00;47.00;;;;;;4947886;29;20237;-43
2021/11/24 10:27:52;;;;;;;5.65;2.08;;;22.90;46.90;;;;;;4942340;29;20206;-44
2021/11/24 10:30:27;;;;;;;5.72;2.03;;;22.90;47.00;;;;;;4947159;28;20215;-43
2021/11/24 10:33:16;;;;;;;3.22;2.15;;;22.90;47.00;;;;;;4943532;29;20249;-43
2021/11/24 10:35:47;;;;;;;3.90;1.60;;;22.90;47.00;;;;;;4942040;29;20238;-43
2021/11/24 10:38:19;;;;;;;4.03;1.95;;;22.80;46.90;;;;;;4947551;29;20632;-43
2021/11/24 10:40:52;;;;;;;3.88;1.67;;;22.80;47.00;;;;;;4940500;28;20258;-44
2021/11/24 10:43:22;;;;;;;3.80;1.98;;;22.80;47.60;;;;;;4947633;28;20199;-43
2021/11/24 10:45:56;;;;;;;6.45;2.08;;;22.70;47.00;;;;;;4933295;29;20219;-43
2021/11/24 10:48:31;;;;;;;3.47;2.00;;;22.70;47.00;;;;;;4922976;29;20255;-43
2021/11/24 10:51:04;;;;;;;4.88;2.13;;;22.70;47.00;;;;;;4931168;29;20202;-43
2021/11/24 10:53:34;;;;;;;4.30;2.08;;;22.70;47.00;;;;;;4927817;29;20218;-43
2021/11/24 10:56:11;;;;;;;3.58;2.00;;;22.60;47.00;;;;;;4920121;29;20283;-43
2021/11/24 10:58:41;;;;;;;3.42;2.00;;;22.60;47.10;;;;;;4928174;29;20199;-43
2021/11/24 11:01:25;;;;;;;5.32;1.98;;;22.60;47.10;;;;;;4924294;29;20263;-42
2021/11/24 11:04:08;;;;;;;4.38;2.00;;;22.50;47.20;;;;;;4927702;29;20196;-44
2021/11/24 11:06:40;;;;;;;4.28;2.00;;;22.50;47.20;;;;;;4924822;29;20253;-43
2021/11/24 11:09:11;;;;;;;2.75;2.08;;;22.50;47.20;;;;;;4920980;29;20715;-44
2021/11/24 11:11:43;;;;;;;4.68;1.90;;;22.40;47.20;;;;;;4925108;29;20251;-43
2021/11/24 11:14:19;;;;;;;4.47;2.00;;;22.40;47.20;;;;;;4923215;29;20268;-43
2021/11/24 11:16:52;;;;;;;3.40;2.30;;;22.40;47.30;;;;;;4923595;29;20199;-42
2021/11/24 11:19:40;;;;;;;3.55;1.80;;;22.30;47.20;;;;;;4925000;29;20239;-43
2021/11/24 11:22:12;;;;;;;3.50;2.08;;;22.30;47.20;;;;;;4923651;29;20200;-44
2021/11/24 11:24:43;;;;;;;2.97;1.80;;;22.30;47.20;;;;;;4924423;29;20250;-43
2021/11/24 11:27:15;;;;;;;2.75;1.67;;;22.30;47.20;;;;;;4921349;29;20321;-44
2021/11/24 11:29:47;;;;;;;2.90;1.58;;;22.20;47.10;;;;;;4927007;29;20199;-43
2021/11/24 11:32:18;;;;;;;3.20;2.08;;;22.20;47.10;;;;;;4922633;29;20211;-42
2021/11/24 11:34:49;;;;;;;2.97;1.75;;;22.20;47.20;;;;;;4923761;29;20805;-43
2021/11/24 11:37:20;;;;;;;2.60;1.60;;;22.20;47.20;;;;;;4922222;29;20325;-42
2021/11/24 11:39:51;;;;;;;2.40;1.60;;;22.10;47.20;;;;;;4922408;28;20787;-43
2021/11/24 11:42:24;;;;;;;4.85;2.15;;;22.10;47.20;;;;;;4921927;29;20204;-44
2021/11/24 11:44:55;;;;;;;4.47;1.92;;;22.10;47.20;;;;;;4921041;29;20212;-42
2021/11/24 11:47:47;;;;;;;2.28;1.85;;;22.10;47.30;;;;;;4928890;29;20254;-43
2021/11/24 11:50:33;;;;;;;3.30;1.90;;;22.00;47.30;;;;;;4921255;29;20225;-42
2021/11/24 11:53:13;;;;;;;3.28;1.65;;;22.00;47.30;;;;;;4923569;29;20200;-42
2021/11/24 11:55:43;;;;;;;3.63;2.20;;;22.00;47.40;;;;;;4924978;29;20978;-43
2021/11/24 11:58:31;;;;;;;3.38;1.70;;;21.90;47.40;;;;;;4928168;29;20227;-44
2021/11/24 12:01:10;;;;;;;3.85;1.55;;;21.90;47.40;;;;;;4929020;29;20199;-43
2021/11/24 12:04:03;;;;;;;3.58;1.90;;;21.90;47.50;;;;;;4924510;29;20211;-42
2021/11/24 12:06:35;;;;;;;4.20;1.55;;;21.80;47.40;;;;;;4923459;29;20262;-44
2021/11/24 12:09:17;;;;;;;3.35;1.50;;;21.80;47.40;;;;;;4927465;29;20212;-43
2021/11/24 12:12:21;;;;;;;3.28;1.70;;;21.80;47.40;;;;;;4923219;29;20203;-43
2021/11/24 12:14:59;;;;;;;3.38;2.08;;;21.80;47.40;;;;;;4924195;29;20295;-43
2021/11/24 12:17:47;;;;;;;2.70;1.58;;;21.80;47.50;;;;;;4923394;29;20203;-42
2021/11/24 12:20:48;;;;;;;3.95;1.88;;;21.70;47.50;;;;;;4923354;29;20200;-44
2021/11/24 12:23:26;;;;;;;2.33;1.50;;;21.70;47.50;;;;;;4866271;29;20232;-43
2021/11/24 12:25:58;;;;;;;3.67;1.50;;;21.70;47.50;;;;;;4916073;29;20227;-43
2021/11/24 12:28:39;;;;;;;3.58;1.80;;;21.60;47.50;;;;;;4925012;29;20274;-43
2021/11/24 12:31:22;;;;;;;2.22;1.42;;;21.70;47.60;;;;;;4925566;29;20212;-43
2021/11/24 12:33:55;;;;;;;2.67;1.45;;;21.60;47.60;;;;;;4931069;29;20247;-43
2021/11/24 12:36:29;;;;;;;2.25;1.67;;;21.60;47.60;;;;;;4928693;29;20234;-46
2021/11/24 12:39:04;;;;;;;4.80;2.03;;;21.60;47.60;;;;;;4932658;29;20330;-43
2021/11/24 12:41:38;;;;;;;3.10;1.85;;;21.50;47.60;;;;;;4923958;29;20207;-43
2021/11/24 12:44:12;;;;;;;2.42;1.80;;;21.50;47.60;;;;;;4926853;29;20202;-45
2021/11/24 12:46:47;;;;;;;3.78;1.50;;;21.50;47.70;;;;;;4934425;29;20210;-42
2021/11/24 12:49:21;;;;;;;2.50;1.60;;;21.40;47.60;;;;;;4932246;29;21471;-43
2021/11/24 12:51:54;;;;;;;3.08;1.70;;;21.40;47.60;;;;;;4932071;29;20211;-43
2021/11/24 12:54:26;;;;;;;3.20;1.67;;;21.40;47.70;;;;;;4932482;29;20199;-43
2021/11/24 12:56:58;;;;;;;3.92;1.50;;;21.40;47.60;;;;;;4931438;29;20196;-43
2021/11/24 12:59:30;;;;;;;2.85;1.92;;;21.40;47.70;;;;;;4933371;29;20648;-44
2021/11/24 13:02:06;;;;;;;2.08;1.55;;;21.40;47.70;;;;;;4932153;29;20735;-43
2021/11/24 13:04:39;;;;;;;2.78;1.60;;;21.30;47.70;;;;;;4934093;29;20251;-42
2021/11/24 13:07:15;;;;;;;3.47;1.80;;;21.30;47.70;;;;;;4930094;29;20270;-42
2021/11/24 13:09:46;;;;;;;2.47;1.38;;;21.30;47.70;;;;;;4924600;29;21042;-43
2021/11/24 13:12:18;;;;;;;2.72;1.60;;;21.30;47.70;;;;;;4931707;29;20251;-43